sensor_id;sensor_type;location;lat;lon;timestamp;P1;durP1;ratioP1;P2;durP2;ratioP2
4389;SDS011;2209;48.982;8.406;2023-06-10T00:00:25;8.40;;;6.77;;
4389;SDS011;2209;48.982;8.406;2023-06-10T00:02:48;10.70;;;7.77;;
4389;SDS011;2209;48.982;8.406;2023-06-10T00:05:10;7.73;;;7.13;;
4389;SDS011;2209;48.982;8.406;2023-06-10T00:07:32;7.77;;;6.93;;
4389;SDS011;2209;48.982;8.406;2023-06-10T00:09:55;8.80;;;8.03;;
4389;SDS011;2209;48.982;8.406;2023-06-10T00:12:17;8.90;;;8.10;;
4389;SDS011;2209;48.982;8.406;2023-06-10T00:14:40;7.73;;;7.03;;
4389;SDS011;2209;48.982;8.406;2023-06-10T00:17:02;7.73;;;7.07;;
4389;SDS011;2209;48.982;8.406;2023-06-10T00:19:25;8.77;;;6.87;;
4389;SDS011;2209;48.982;8.406;2023-06-10T00:21:50;9.70;;;7.60;;
4389;SDS011;2209;48.982;8.406;2023-06-10T00:24:12;8.90;;;7.63;;
4389;SDS011;2209;48.982;8.406;2023-06-10T00:26:36;8.33;;;7.53;;
4389;SDS011;2209;48.982;8.406;2023-06-10T00:28:58;8.17;;;7.43;;
4389;SDS011;2209;48.982;8.406;2023-06-10T00:31:20;8.53;;;7.70;;
4389;SDS011;2209;48.982;8.406;2023-06-10T00:33:42;7.93;;;7.23;;
4389;SDS011;2209;48.982;8.406;2023-06-10T00:36:04;7.80;;;7.20;;
4389;SDS011;2209;48.982;8.406;2023-06-10T00:38:27;8.20;;;7.40;;
4389;SDS011;2209;48.982;8.406;2023-06-10T00:40:49;12.83;;;7.40;;
4389;SDS011;2209;48.982;8.406;2023-06-10T00:43:13;8.33;;;6.50;;
4389;SDS011;2209;48.982;8.406;2023-06-10T00:45:35;7.47;;;6.90;;
4389;SDS011;2209;48.982;8.406;2023-06-10T00:47:57;7.70;;;7.10;;
4389;SDS011;2209;48.982;8.406;2023-06-10T00:50:19;8.73;;;7.37;;
4389;SDS011;2209;48.982;8.406;2023-06-10T00:52:41;7.90;;;7.20;;
4389;SDS011;2209;48.982;8.406;2023-06-10T00:55:05;7.43;;;6.73;;
4389;SDS011;2209;48.982;8.406;2023-06-10T00:57:28;7.50;;;6.90;;
4389;SDS011;2209;48.982;8.406;2023-06-10T00:59:52;7.77;;;7.03;;
4389;SDS011;2209;48.982;8.406;2023-06-10T01:02:14;7.80;;;7.10;;
4389;SDS011;2209;48.982;8.406;2023-06-10T01:04:36;7.87;;;7.10;;
4389;SDS011;2209;48.982;8.406;2023-06-10T01:07:00;7.80;;;7.10;;
4389;SDS011;2209;48.982;8.406;2023-06-10T01:09:32;6.90;;;6.30;;
4389;SDS011;2209;48.982;8.406;2023-06-10T01:12:01;8.40;;;7.60;;
4389;SDS011;2209;48.982;8.406;2023-06-10T01:14:29;7.00;;;6.47;;
4389;SDS011;2209;48.982;8.406;2023-06-10T01:16:54;7.40;;;6.90;;
4389;SDS011;2209;48.982;8.406;2023-06-10T01:19:17;8.80;;;8.10;;
4389;SDS011;2209;48.982;8.406;2023-06-10T01:21:40;7.53;;;6.83;;
4389;SDS011;2209;48.982;8.406;2023-06-10T01:24:02;7.83;;;7.13;;
4389;SDS011;2209;48.982;8.406;2023-06-10T01:26:28;7.73;;;7.03;;
4389;SDS011;2209;48.982;8.406;2023-06-10T01:28:54;8.13;;;7.43;;
4389;SDS011;2209;48.982;8.406;2023-06-10T01:31:23;7.40;;;6.80;;
4389;SDS011;2209;48.982;8.406;2023-06-10T01:33:54;7.40;;;6.90;;
4389;SDS011;2209;48.982;8.406;2023-06-10T01:36:17;7.50;;;6.87;;
4389;SDS011;2209;48.982;8.406;2023-06-10T01:38:42;7.47;;;6.87;;
4389;SDS011;2209;48.982;8.406;2023-06-10T01:41:05;6.80;;;6.30;;
4389;SDS011;2209;48.982;8.406;2023-06-10T01:43:28;7.33;;;6.70;;
4389;SDS011;2209;48.982;8.406;2023-06-10T01:45:53;8.40;;;6.70;;
4389;SDS011;2209;48.982;8.406;2023-06-10T01:48:16;7.07;;;6.47;;
4389;SDS011;2209;48.982;8.406;2023-06-10T01:50:38;7.37;;;6.77;;
4389;SDS011;2209;48.982;8.406;2023-06-10T01:53:00;6.70;;;6.20;;
4389;SDS011;2209;48.982;8.406;2023-06-10T01:55:24;7.53;;;6.83;;
4389;SDS011;2209;48.982;8.406;2023-06-10T01:57:46;7.50;;;6.90;;
4389;SDS011;2209;48.982;8.406;2023-06-10T02:00:08;6.57;;;6.07;;
4389;SDS011;2209;48.982;8.406;2023-06-10T02:02:31;7.53;;;6.83;;
4389;SDS011;2209;48.982;8.406;2023-06-10T02:04:53;6.70;;;6.20;;
4389;SDS011;2209;48.982;8.406;2023-06-10T02:07:15;7.10;;;6.50;;
4389;SDS011;2209;48.982;8.406;2023-06-10T02:09:38;7.27;;;6.67;;
4389;SDS011;2209;48.982;8.406;2023-06-10T02:12:03;7.90;;;7.20;;
4389;SDS011;2209;48.982;8.406;2023-06-10T02:14:26;6.50;;;6.00;;
4389;SDS011;2209;48.982;8.406;2023-06-10T02:16:48;7.77;;;7.00;;
4389;SDS011;2209;48.982;8.406;2023-06-10T02:19:11;6.87;;;6.37;;
4389;SDS011;2209;48.982;8.406;2023-06-10T02:21:33;6.30;;;5.80;;
4389;SDS011;2209;48.982;8.406;2023-06-10T02:23:55;7.20;;;6.60;;
4389;SDS011;2209;48.982;8.406;2023-06-10T02:26:18;8.03;;;7.23;;
4389;SDS011;2209;48.982;8.406;2023-06-10T02:28:43;6.40;;;5.90;;
4389;SDS011;2209;48.982;8.406;2023-06-10T02:31:05;6.87;;;5.90;;
4389;SDS011;2209;48.982;8.406;2023-06-10T02:33:28;6.40;;;5.90;;
4389;SDS011;2209;48.982;8.406;2023-06-10T02:35:50;6.63;;;6.10;;
4389;SDS011;2209;48.982;8.406;2023-06-10T02:38:12;7.30;;;6.57;;
4389;SDS011;2209;48.982;8.406;2023-06-10T02:40:34;6.20;;;5.80;;
4389;SDS011;2209;48.982;8.406;2023-06-10T02:42:56;7.73;;;7.07;;
4389;SDS011;2209;48.982;8.406;2023-06-10T02:45:20;8.10;;;7.30;;
4389;SDS011;2209;48.982;8.406;2023-06-10T02:47:42;7.10;;;6.50;;
4389;SDS011;2209;48.982;8.406;2023-06-10T02:50:04;8.53;;;7.73;;
4389;SDS011;2209;48.982;8.406;2023-06-10T02:52:26;6.43;;;5.93;;
4389;SDS011;2209;48.982;8.406;2023-06-10T02:54:49;7.70;;;6.90;;
4389;SDS011;2209;48.982;8.406;2023-06-10T02:57:11;6.80;;;6.03;;
4389;SDS011;2209;48.982;8.406;2023-06-10T02:59:34;7.40;;;6.03;;
4389;SDS011;2209;48.982;8.406;2023-06-10T03:01:59;6.30;;;5.80;;
4389;SDS011;2209;48.982;8.406;2023-06-10T03:04:21;7.00;;;6.17;;
4389;SDS011;2209;48.982;8.406;2023-06-10T03:06:44;8.93;;;6.73;;
4389;SDS011;2209;48.982;8.406;2023-06-10T03:09:07;8.23;;;7.43;;
4389;SDS011;2209;48.982;8.406;2023-06-10T03:11:29;7.17;;;6.60;;
4389;SDS011;2209;48.982;8.406;2023-06-10T03:13:51;7.10;;;6.40;;
4389;SDS011;2209;48.982;8.406;2023-06-10T03:16:14;8.03;;;7.20;;
4389;SDS011;2209;48.982;8.406;2023-06-10T03:18:37;8.23;;;6.50;;
4389;SDS011;2209;48.982;8.406;2023-06-10T03:21:00;7.50;;;6.30;;
4389;SDS011;2209;48.982;8.406;2023-06-10T03:23:23;7.23;;;6.63;;
4389;SDS011;2209;48.982;8.406;2023-06-10T03:25:45;7.47;;;6.80;;
4389;SDS011;2209;48.982;8.406;2023-06-10T03:28:07;7.37;;;6.63;;
4389;SDS011;2209;48.982;8.406;2023-06-10T03:30:29;6.37;;;5.77;;
4389;SDS011;2209;48.982;8.406;2023-06-10T03:32:51;6.83;;;6.07;;
4389;SDS011;2209;48.982;8.406;2023-06-10T03:35:15;6.40;;;6.00;;
4389;SDS011;2209;48.982;8.406;2023-06-10T03:37:37;7.13;;;6.50;;
4389;SDS011;2209;48.982;8.406;2023-06-10T03:39:59;6.67;;;6.17;;
4389;SDS011;2209;48.982;8.406;2023-06-10T03:42:22;7.00;;;6.50;;
4389;SDS011;2209;48.982;8.406;2023-06-10T03:44:44;7.27;;;6.57;;
4389;SDS011;2209;48.982;8.406;2023-06-10T03:47:06;7.97;;;7.27;;
4389;SDS011;2209;48.982;8.406;2023-06-10T03:49:28;7.40;;;6.70;;
4389;SDS011;2209;48.982;8.406;2023-06-10T03:51:51;7.43;;;6.73;;
4389;SDS011;2209;48.982;8.406;2023-06-10T03:54:13;6.43;;;5.93;;
4389;SDS011;2209;48.982;8.406;2023-06-10T03:56:35;8.37;;;6.40;;
4389;SDS011;2209;48.982;8.406;2023-06-10T03:58:57;7.20;;;6.60;;
4389;SDS011;2209;48.982;8.406;2023-06-10T04:01:19;6.90;;;6.40;;
4389;SDS011;2209;48.982;8.406;2023-06-10T04:03:41;7.50;;;6.90;;
4389;SDS011;2209;48.982;8.406;2023-06-10T04:06:04;6.53;;;5.93;;
4389;SDS011;2209;48.982;8.406;2023-06-10T04:08:27;7.20;;;6.20;;
4389;SDS011;2209;48.982;8.406;2023-06-10T04:10:50;8.07;;;6.93;;
4389;SDS011;2209;48.982;8.406;2023-06-10T04:13:12;8.07;;;7.37;;
4389;SDS011;2209;48.982;8.406;2023-06-10T04:15:35;6.10;;;5.60;;
4389;SDS011;2209;48.982;8.406;2023-06-10T04:17:57;8.97;;;7.07;;
4389;SDS011;2209;48.982;8.406;2023-06-10T04:20:19;7.03;;;6.40;;
4389;SDS011;2209;48.982;8.406;2023-06-10T04:22:41;6.33;;;5.83;;
4389;SDS011;2209;48.982;8.406;2023-06-10T04:25:04;6.97;;;6.37;;
4389;SDS011;2209;48.982;8.406;2023-06-10T04:27:28;6.83;;;6.30;;
4389;SDS011;2209;48.982;8.406;2023-06-10T04:29:50;6.90;;;6.20;;
4389;SDS011;2209;48.982;8.406;2023-06-10T04:32:12;8.90;;;6.50;;
4389;SDS011;2209;48.982;8.406;2023-06-10T04:34:34;6.00;;;5.50;;
4389;SDS011;2209;48.982;8.406;2023-06-10T04:36:59;6.67;;;6.17;;
4389;SDS011;2209;48.982;8.406;2023-06-10T04:39:22;7.27;;;6.40;;
4389;SDS011;2209;48.982;8.406;2023-06-10T04:41:45;6.90;;;6.40;;
4389;SDS011;2209;48.982;8.406;2023-06-10T04:44:08;7.50;;;6.87;;
4389;SDS011;2209;48.982;8.406;2023-06-10T04:46:31;7.77;;;6.53;;
4389;SDS011;2209;48.982;8.406;2023-06-10T04:48:53;6.50;;;6.00;;
4389;SDS011;2209;48.982;8.406;2023-06-10T04:51:15;6.63;;;6.07;;
4389;SDS011;2209;48.982;8.406;2023-06-10T04:53:37;6.70;;;6.10;;
4389;SDS011;2209;48.982;8.406;2023-06-10T04:56:00;8.27;;;6.93;;
4389;SDS011;2209;48.982;8.406;2023-06-10T04:58:23;7.10;;;6.57;;
4389;SDS011;2209;48.982;8.406;2023-06-10T05:00:45;8.93;;;6.87;;
4389;SDS011;2209;48.982;8.406;2023-06-10T05:03:07;7.20;;;6.60;;
4389;SDS011;2209;48.982;8.406;2023-06-10T05:05:29;6.67;;;6.17;;
4389;SDS011;2209;48.982;8.406;2023-06-10T05:07:51;7.77;;;6.00;;
4389;SDS011;2209;48.982;8.406;2023-06-10T05:10:13;6.37;;;5.87;;
4389;SDS011;2209;48.982;8.406;2023-06-10T05:12:35;6.27;;;5.80;;
4389;SDS011;2209;48.982;8.406;2023-06-10T05:15:00;6.93;;;6.23;;
4389;SDS011;2209;48.982;8.406;2023-06-10T05:17:22;6.13;;;5.73;;
4389;SDS011;2209;48.982;8.406;2023-06-10T05:19:45;6.30;;;5.77;;
4389;SDS011;2209;48.982;8.406;2023-06-10T05:22:07;6.60;;;6.10;;
4389;SDS011;2209;48.982;8.406;2023-06-10T05:24:29;6.50;;;6.00;;
4389;SDS011;2209;48.982;8.406;2023-06-10T05:26:51;6.40;;;5.90;;
4389;SDS011;2209;48.982;8.406;2023-06-10T05:29:13;9.93;;;6.50;;
4389;SDS011;2209;48.982;8.406;2023-06-10T05:31:37;8.60;;;6.83;;
4389;SDS011;2209;48.982;8.406;2023-06-10T05:33:59;5.87;;;5.40;;
4389;SDS011;2209;48.982;8.406;2023-06-10T05:36:22;7.87;;;6.00;;
4389;SDS011;2209;48.982;8.406;2023-06-10T05:38:46;6.27;;;5.77;;
4389;SDS011;2209;48.982;8.406;2023-06-10T05:41:08;6.87;;;6.20;;
4389;SDS011;2209;48.982;8.406;2023-06-10T05:43:30;6.03;;;5.47;;
4389;SDS011;2209;48.982;8.406;2023-06-10T05:45:52;7.73;;;6.07;;
4389;SDS011;2209;48.982;8.406;2023-06-10T05:48:15;8.20;;;5.43;;
4389;SDS011;2209;48.982;8.406;2023-06-10T05:50:39;6.30;;;5.80;;
4389;SDS011;2209;48.982;8.406;2023-06-10T05:53:02;7.03;;;6.33;;
4389;SDS011;2209;48.982;8.406;2023-06-10T05:55:25;5.73;;;5.33;;
4389;SDS011;2209;48.982;8.406;2023-06-10T05:57:47;11.70;;;6.43;;
4389;SDS011;2209;48.982;8.406;2023-06-10T06:00:09;6.53;;;5.93;;
4389;SDS011;2209;48.982;8.406;2023-06-10T06:02:32;5.70;;;5.20;;
4389;SDS011;2209;48.982;8.406;2023-06-10T06:04:55;6.83;;;5.67;;
4389;SDS011;2209;48.982;8.406;2023-06-10T06:07:17;5.93;;;5.43;;
4389;SDS011;2209;48.982;8.406;2023-06-10T06:09:40;5.47;;;5.07;;
4389;SDS011;2209;48.982;8.406;2023-06-10T06:12:03;6.00;;;5.60;;
4389;SDS011;2209;48.982;8.406;2023-06-10T06:14:26;9.47;;;5.57;;
4389;SDS011;2209;48.982;8.406;2023-06-10T06:16:52;5.60;;;5.10;;
4389;SDS011;2209;48.982;8.406;2023-06-10T06:19:14;5.37;;;4.97;;
4389;SDS011;2209;48.982;8.406;2023-06-10T06:21:37;6.13;;;5.27;;
4389;SDS011;2209;48.982;8.406;2023-06-10T06:23:59;6.40;;;4.53;;
4389;SDS011;2209;48.982;8.406;2023-06-10T06:26:21;7.87;;;7.17;;
4389;SDS011;2209;48.982;8.406;2023-06-10T06:28:43;5.20;;;4.80;;
4389;SDS011;2209;48.982;8.406;2023-06-10T06:31:06;5.50;;;5.00;;
4389;SDS011;2209;48.982;8.406;2023-06-10T06:33:28;5.57;;;4.47;;
4389;SDS011;2209;48.982;8.406;2023-06-10T06:35:51;5.60;;;5.10;;
4389;SDS011;2209;48.982;8.406;2023-06-10T06:38:14;5.80;;;5.20;;
4389;SDS011;2209;48.982;8.406;2023-06-10T06:40:36;5.70;;;5.20;;
4389;SDS011;2209;48.982;8.406;2023-06-10T06:42:58;7.13;;;4.20;;
4389;SDS011;2209;48.982;8.406;2023-06-10T06:45:20;6.73;;;6.10;;
4389;SDS011;2209;48.982;8.406;2023-06-10T06:47:42;6.60;;;4.97;;
4389;SDS011;2209;48.982;8.406;2023-06-10T06:50:05;5.67;;;5.27;;
4389;SDS011;2209;48.982;8.406;2023-06-10T06:52:27;5.57;;;5.07;;
4389;SDS011;2209;48.982;8.406;2023-06-10T06:54:51;4.90;;;4.33;;
4389;SDS011;2209;48.982;8.406;2023-06-10T06:57:13;5.20;;;4.80;;
4389;SDS011;2209;48.982;8.406;2023-06-10T06:59:35;5.30;;;4.90;;
4389;SDS011;2209;48.982;8.406;2023-06-10T07:01:57;4.80;;;4.40;;
4389;SDS011;2209;48.982;8.406;2023-06-10T07:04:19;5.10;;;4.70;;
4389;SDS011;2209;48.982;8.406;2023-06-10T07:06:42;7.87;;;4.80;;
4389;SDS011;2209;48.982;8.406;2023-06-10T07:09:04;5.20;;;4.73;;
4389;SDS011;2209;48.982;8.406;2023-06-10T07:11:28;5.27;;;4.87;;
4389;SDS011;2209;48.982;8.406;2023-06-10T07:13:50;5.93;;;5.30;;
4389;SDS011;2209;48.982;8.406;2023-06-10T07:16:12;8.07;;;5.60;;
4389;SDS011;2209;48.982;8.406;2023-06-10T07:18:34;5.27;;;4.80;;
4389;SDS011;2209;48.982;8.406;2023-06-10T07:20:57;5.50;;;5.10;;
4389;SDS011;2209;48.982;8.406;2023-06-10T07:23:19;6.00;;;5.50;;
4389;SDS011;2209;48.982;8.406;2023-06-10T07:25:41;5.47;;;4.97;;
4389;SDS011;2209;48.982;8.406;2023-06-10T07:28:04;4.80;;;4.40;;
4389;SDS011;2209;48.982;8.406;2023-06-10T07:30:27;6.00;;;4.70;;
4389;SDS011;2209;48.982;8.406;2023-06-10T07:32:50;9.27;;;6.23;;
4389;SDS011;2209;48.982;8.406;2023-06-10T07:35:13;7.70;;;6.07;;
4389;SDS011;2209;48.982;8.406;2023-06-10T07:37:35;5.80;;;5.40;;
4389;SDS011;2209;48.982;8.406;2023-06-10T07:39:57;7.30;;;6.10;;
4389;SDS011;2209;48.982;8.406;2023-06-10T07:42:19;5.63;;;4.90;;
4389;SDS011;2209;48.982;8.406;2023-06-10T07:44:43;5.57;;;5.07;;
4389;SDS011;2209;48.982;8.406;2023-06-10T07:47:05;7.80;;;5.63;;
4389;SDS011;2209;48.982;8.406;2023-06-10T07:49:27;6.03;;;5.47;;
4389;SDS011;2209;48.982;8.406;2023-06-10T07:51:50;6.63;;;5.40;;
4389;SDS011;2209;48.982;8.406;2023-06-10T07:54:12;5.33;;;4.93;;
4389;SDS011;2209;48.982;8.406;2023-06-10T07:56:34;5.47;;;5.00;;
4389;SDS011;2209;48.982;8.406;2023-06-10T07:58:56;7.07;;;6.37;;
4389;SDS011;2209;48.982;8.406;2023-06-10T08:01:20;5.63;;;5.13;;
4389;SDS011;2209;48.982;8.406;2023-06-10T08:03:43;6.63;;;5.93;;
4389;SDS011;2209;48.982;8.406;2023-06-10T08:06:05;6.07;;;5.47;;
4389;SDS011;2209;48.982;8.406;2023-06-10T08:08:29;5.30;;;4.90;;
4389;SDS011;2209;48.982;8.406;2023-06-10T08:10:51;6.60;;;6.00;;
4389;SDS011;2209;48.982;8.406;2023-06-10T08:13:14;5.60;;;5.10;;
4389;SDS011;2209;48.982;8.406;2023-06-10T08:15:36;5.20;;;4.80;;
4389;SDS011;2209;48.982;8.406;2023-06-10T08:17:59;6.33;;;5.70;;
4389;SDS011;2209;48.982;8.406;2023-06-10T08:20:21;6.53;;;5.93;;
4389;SDS011;2209;48.982;8.406;2023-06-10T08:22:43;5.77;;;5.27;;
4389;SDS011;2209;48.982;8.406;2023-06-10T08:25:05;5.70;;;5.20;;
4389;SDS011;2209;48.982;8.406;2023-06-10T08:27:28;7.40;;;5.70;;
4389;SDS011;2209;48.982;8.406;2023-06-10T08:29:50;5.80;;;5.30;;
4389;SDS011;2209;48.982;8.406;2023-06-10T08:32:12;6.80;;;4.80;;
4389;SDS011;2209;48.982;8.406;2023-06-10T08:34:36;5.63;;;4.80;;
4389;SDS011;2209;48.982;8.406;2023-06-10T08:36:58;5.00;;;4.50;;
4389;SDS011;2209;48.982;8.406;2023-06-10T08:39:20;4.90;;;4.50;;
4389;SDS011;2209;48.982;8.406;2023-06-10T08:41:43;5.37;;;4.97;;
4389;SDS011;2209;48.982;8.406;2023-06-10T08:44:08;4.80;;;4.30;;
4389;SDS011;2209;48.982;8.406;2023-06-10T08:46:34;5.17;;;4.13;;
4389;SDS011;2209;48.982;8.406;2023-06-10T08:48:57;4.40;;;4.00;;
4389;SDS011;2209;48.982;8.406;2023-06-10T08:51:25;4.17;;;3.77;;
4389;SDS011;2209;48.982;8.406;2023-06-10T08:53:50;4.37;;;3.97;;
4389;SDS011;2209;48.982;8.406;2023-06-10T08:56:19;5.00;;;4.60;;
4389;SDS011;2209;48.982;8.406;2023-06-10T08:58:43;7.33;;;3.90;;
4389;SDS011;2209;48.982;8.406;2023-06-10T09:01:06;5.90;;;5.43;;
4389;SDS011;2209;48.982;8.406;2023-06-10T09:03:28;5.63;;;5.17;;
4389;SDS011;2209;48.982;8.406;2023-06-10T09:05:51;5.93;;;5.40;;
4389;SDS011;2209;48.982;8.406;2023-06-10T09:08:14;5.97;;;5.57;;
4389;SDS011;2209;48.982;8.406;2023-06-10T09:10:37;6.10;;;5.43;;
4389;SDS011;2209;48.982;8.406;2023-06-10T09:13:00;5.60;;;5.10;;
4389;SDS011;2209;48.982;8.406;2023-06-10T09:15:22;5.57;;;5.23;;
4389;SDS011;2209;48.982;8.406;2023-06-10T09:17:44;5.20;;;4.80;;
4389;SDS011;2209;48.982;8.406;2023-06-10T09:20:07;5.37;;;4.87;;
4389;SDS011;2209;48.982;8.406;2023-06-10T09:22:29;5.33;;;4.93;;
4389;SDS011;2209;48.982;8.406;2023-06-10T09:24:53;4.90;;;4.50;;
4389;SDS011;2209;48.982;8.406;2023-06-10T09:27:24;6.13;;;5.63;;
4389;SDS011;2209;48.982;8.406;2023-06-10T09:29:46;5.60;;;5.10;;
4389;SDS011;2209;48.982;8.406;2023-06-10T09:32:12;6.47;;;5.87;;
4389;SDS011;2209;48.982;8.406;2023-06-10T09:34:34;6.47;;;5.80;;
4389;SDS011;2209;48.982;8.406;2023-06-10T09:36:58;6.10;;;5.60;;
4389;SDS011;2209;48.982;8.406;2023-06-10T09:39:20;5.13;;;4.73;;
4389;SDS011;2209;48.982;8.406;2023-06-10T09:41:44;6.50;;;6.00;;
4389;SDS011;2209;48.982;8.406;2023-06-10T09:44:09;7.53;;;5.43;;
4389;SDS011;2209;48.982;8.406;2023-06-10T09:46:34;5.83;;;5.23;;
4389;SDS011;2209;48.982;8.406;2023-06-10T09:48:57;6.60;;;6.00;;
4389;SDS011;2209;48.982;8.406;2023-06-10T09:51:19;5.73;;;5.30;;
4389;SDS011;2209;48.982;8.406;2023-06-10T09:53:43;5.63;;;5.13;;
4389;SDS011;2209;48.982;8.406;2023-06-10T09:56:09;5.80;;;5.20;;
4389;SDS011;2209;48.982;8.406;2023-06-10T09:58:36;5.40;;;5.00;;
4389;SDS011;2209;48.982;8.406;2023-06-10T10:00:59;6.20;;;5.70;;
4389;SDS011;2209;48.982;8.406;2023-06-10T10:03:22;6.87;;;6.37;;
4389;SDS011;2209;48.982;8.406;2023-06-10T10:05:44;8.33;;;5.57;;
4389;SDS011;2209;48.982;8.406;2023-06-10T10:08:06;6.93;;;6.33;;
4389;SDS011;2209;48.982;8.406;2023-06-10T10:10:28;6.10;;;5.60;;
4389;SDS011;2209;48.982;8.406;2023-06-10T10:12:51;6.90;;;6.33;;
4389;SDS011;2209;48.982;8.406;2023-06-10T10:15:18;6.50;;;5.90;;
4389;SDS011;2209;48.982;8.406;2023-06-10T10:17:44;5.90;;;5.40;;
4389;SDS011;2209;48.982;8.406;2023-06-10T10:20:12;7.00;;;6.30;;
4389;SDS011;2209;48.982;8.406;2023-06-10T10:22:37;6.03;;;5.60;;
4389;SDS011;2209;48.982;8.406;2023-06-10T10:25:05;7.60;;;6.70;;
4389;SDS011;2209;48.982;8.406;2023-06-10T10:27:35;6.70;;;6.20;;
4389;SDS011;2209;48.982;8.406;2023-06-10T10:30:04;6.87;;;6.10;;
4389;SDS011;2209;48.982;8.406;2023-06-10T10:32:32;8.60;;;7.30;;
4389;SDS011;2209;48.982;8.406;2023-06-10T10:35:01;6.87;;;6.23;;
4389;SDS011;2209;48.982;8.406;2023-06-10T10:37:29;7.47;;;6.87;;
4389;SDS011;2209;48.982;8.406;2023-06-10T10:39:51;7.47;;;6.77;;
4389;SDS011;2209;48.982;8.406;2023-06-10T10:42:13;6.77;;;6.27;;
4389;SDS011;2209;48.982;8.406;2023-06-10T10:44:37;7.43;;;6.73;;
4389;SDS011;2209;48.982;8.406;2023-06-10T10:47:02;6.97;;;6.30;;
4389;SDS011;2209;48.982;8.406;2023-06-10T10:49:26;7.60;;;6.90;;
4389;SDS011;2209;48.982;8.406;2023-06-10T10:51:55;6.30;;;5.80;;
4389;SDS011;2209;48.982;8.406;2023-06-10T10:54:18;6.50;;;6.00;;
4389;SDS011;2209;48.982;8.406;2023-06-10T10:56:45;7.10;;;6.50;;
4389;SDS011;2209;48.982;8.406;2023-06-10T10:59:42;7.00;;;6.40;;
4389;SDS011;2209;48.982;8.406;2023-06-10T11:02:06;7.10;;;6.50;;
4389;SDS011;2209;48.982;8.406;2023-06-10T11:04:29;6.33;;;5.83;;
4389;SDS011;2209;48.982;8.406;2023-06-10T11:06:52;7.83;;;6.83;;
4389;SDS011;2209;48.982;8.406;2023-06-10T11:11:52;6.47;;;5.87;;
4389;SDS011;2209;48.982;8.406;2023-06-10T11:14:14;10.87;;;6.30;;
4389;SDS011;2209;48.982;8.406;2023-06-10T11:16:50;7.67;;;6.20;;
4389;SDS011;2209;48.982;8.406;2023-06-10T11:22:00;6.07;;;5.60;;
4389;SDS011;2209;48.982;8.406;2023-06-10T11:24:22;6.60;;;6.10;;
4389;SDS011;2209;48.982;8.406;2023-06-10T11:26:44;6.33;;;5.73;;
4389;SDS011;2209;48.982;8.406;2023-06-10T11:29:07;7.03;;;6.43;;
4389;SDS011;2209;48.982;8.406;2023-06-10T11:31:30;6.57;;;6.07;;
4389;SDS011;2209;48.982;8.406;2023-06-10T11:33:54;5.77;;;5.27;;
4389;SDS011;2209;48.982;8.406;2023-06-10T11:36:17;6.00;;;5.50;;
4389;SDS011;2209;48.982;8.406;2023-06-10T11:38:40;6.53;;;6.03;;
4389;SDS011;2209;48.982;8.406;2023-06-10T11:41:03;6.50;;;6.00;;
4389;SDS011;2209;48.982;8.406;2023-06-10T11:43:26;7.03;;;6.33;;
4389;SDS011;2209;48.982;8.406;2023-06-10T11:45:53;6.50;;;6.00;;
4389;SDS011;2209;48.982;8.406;2023-06-10T11:48:16;7.93;;;5.50;;
4389;SDS011;2209;48.982;8.406;2023-06-10T11:50:38;7.57;;;6.87;;
4389;SDS011;2209;48.982;8.406;2023-06-10T11:53:02;6.50;;;5.97;;
4389;SDS011;2209;48.982;8.406;2023-06-10T11:55:26;6.27;;;5.53;;
4389;SDS011;2209;48.982;8.406;2023-06-10T11:58:00;7.63;;;6.20;;
4389;SDS011;2209;48.982;8.406;2023-06-10T12:00:23;5.97;;;5.47;;
4389;SDS011;2209;48.982;8.406;2023-06-10T12:02:45;6.27;;;5.77;;
4389;SDS011;2209;48.982;8.406;2023-06-10T12:05:11;9.73;;;6.00;;
4389;SDS011;2209;48.982;8.406;2023-06-10T12:07:33;6.17;;;5.67;;
4389;SDS011;2209;48.982;8.406;2023-06-10T12:09:58;8.30;;;6.57;;
4389;SDS011;2209;48.982;8.406;2023-06-10T12:12:22;7.20;;;6.53;;
4389;SDS011;2209;48.982;8.406;2023-06-10T12:14:51;9.73;;;6.00;;
4389;SDS011;2209;48.982;8.406;2023-06-10T12:17:15;7.80;;;5.93;;
4389;SDS011;2209;48.982;8.406;2023-06-10T12:19:38;6.20;;;5.70;;
4389;SDS011;2209;48.982;8.406;2023-06-10T12:22:00;6.63;;;6.07;;
4389;SDS011;2209;48.982;8.406;2023-06-10T12:24:22;8.27;;;6.80;;
4389;SDS011;2209;48.982;8.406;2023-06-10T12:26:44;6.57;;;5.87;;
4389;SDS011;2209;48.982;8.406;2023-06-10T12:29:16;6.27;;;5.77;;
4389;SDS011;2209;48.982;8.406;2023-06-10T12:31:59;16.37;;;6.47;;
4389;SDS011;2209;48.982;8.406;2023-06-10T12:34:33;6.57;;;5.90;;
4389;SDS011;2209;48.982;8.406;2023-06-10T12:36:56;6.17;;;5.60;;
4389;SDS011;2209;48.982;8.406;2023-06-10T12:39:19;6.33;;;5.83;;
4389;SDS011;2209;48.982;8.406;2023-06-10T12:41:46;7.03;;;5.57;;
4389;SDS011;2209;48.982;8.406;2023-06-10T12:44:09;6.80;;;6.17;;
4389;SDS011;2209;48.982;8.406;2023-06-10T12:46:36;6.17;;;5.70;;
4389;SDS011;2209;48.982;8.406;2023-06-10T12:48:58;5.83;;;5.43;;
4389;SDS011;2209;48.982;8.406;2023-06-10T12:51:21;6.90;;;6.30;;
4389;SDS011;2209;48.982;8.406;2023-06-10T12:53:43;6.17;;;5.67;;
4389;SDS011;2209;48.982;8.406;2023-06-10T12:56:08;6.87;;;6.37;;
4389;SDS011;2209;48.982;8.406;2023-06-10T12:58:33;7.03;;;6.33;;
4389;SDS011;2209;48.982;8.406;2023-06-10T13:00:55;7.20;;;6.50;;
4389;SDS011;2209;48.982;8.406;2023-06-10T13:03:21;7.70;;;5.80;;
4389;SDS011;2209;48.982;8.406;2023-06-10T13:05:46;6.20;;;5.70;;
4389;SDS011;2209;48.982;8.406;2023-06-10T13:08:09;7.47;;;6.33;;
4389;SDS011;2209;48.982;8.406;2023-06-10T13:10:36;6.97;;;6.20;;
4389;SDS011;2209;48.982;8.406;2023-06-10T13:12:59;6.80;;;5.53;;
4389;SDS011;2209;48.982;8.406;2023-06-10T13:15:23;5.67;;;5.27;;
4389;SDS011;2209;48.982;8.406;2023-06-10T13:17:47;5.17;;;4.70;;
4389;SDS011;2209;48.982;8.406;2023-06-10T13:20:12;5.80;;;5.20;;
4389;SDS011;2209;48.982;8.406;2023-06-10T13:22:34;5.60;;;5.20;;
4389;SDS011;2209;48.982;8.406;2023-06-10T13:24:57;6.90;;;5.13;;
4389;SDS011;2209;48.982;8.406;2023-06-10T13:27:19;5.93;;;5.53;;
4389;SDS011;2209;48.982;8.406;2023-06-10T13:29:42;6.43;;;5.83;;
4389;SDS011;2209;48.982;8.406;2023-06-10T13:32:05;5.60;;;5.20;;
4389;SDS011;2209;48.982;8.406;2023-06-10T13:34:28;5.80;;;5.27;;
4389;SDS011;2209;48.982;8.406;2023-06-10T13:36:51;7.57;;;5.80;;
4389;SDS011;2209;48.982;8.406;2023-06-10T13:39:16;6.17;;;5.40;;
4389;SDS011;2209;48.982;8.406;2023-06-10T13:41:41;6.30;;;5.70;;
4389;SDS011;2209;48.982;8.406;2023-06-10T13:44:05;6.60;;;6.10;;
4389;SDS011;2209;48.982;8.406;2023-06-10T13:46:28;6.23;;;5.73;;
4389;SDS011;2209;48.982;8.406;2023-06-10T13:48:57;6.70;;;5.90;;
4389;SDS011;2209;48.982;8.406;2023-06-10T13:51:23;8.00;;;5.60;;
4389;SDS011;2209;48.982;8.406;2023-06-10T13:53:49;6.47;;;5.90;;
4389;SDS011;2209;48.982;8.406;2023-06-10T13:56:13;5.10;;;4.80;;
4389;SDS011;2209;48.982;8.406;2023-06-10T13:58:36;6.00;;;5.50;;
4389;SDS011;2209;48.982;8.406;2023-06-10T14:01:01;5.77;;;5.37;;
4389;SDS011;2209;48.982;8.406;2023-06-10T14:03:24;5.53;;;5.13;;
4389;SDS011;2209;48.982;8.406;2023-06-10T14:05:47;6.50;;;6.00;;
4389;SDS011;2209;48.982;8.406;2023-06-10T14:08:19;5.60;;;5.20;;
4389;SDS011;2209;48.982;8.406;2023-06-10T14:10:43;6.00;;;5.40;;
4389;SDS011;2209;48.982;8.406;2023-06-10T14:13:06;6.07;;;5.40;;
4389;SDS011;2209;48.982;8.406;2023-06-10T14:15:31;5.80;;;5.40;;
4389;SDS011;2209;48.982;8.406;2023-06-10T14:18:05;5.80;;;5.40;;
4389;SDS011;2209;48.982;8.406;2023-06-10T14:20:30;5.97;;;5.57;;
4389;SDS011;2209;48.982;8.406;2023-06-10T14:22:52;5.50;;;5.10;;
4389;SDS011;2209;48.982;8.406;2023-06-10T14:25:22;5.43;;;5.03;;
4389;SDS011;2209;48.982;8.406;2023-06-10T14:27:46;7.60;;;5.30;;
4389;SDS011;2209;48.982;8.406;2023-06-10T14:30:09;6.07;;;5.63;;
4389;SDS011;2209;48.982;8.406;2023-06-10T14:32:34;5.60;;;5.20;;
4389;SDS011;2209;48.982;8.406;2023-06-10T14:34:56;5.20;;;4.70;;
4389;SDS011;2209;48.982;8.406;2023-06-10T14:37:19;5.40;;;5.00;;
4389;SDS011;2209;48.982;8.406;2023-06-10T14:39:42;5.23;;;4.93;;
4389;SDS011;2209;48.982;8.406;2023-06-10T14:42:05;5.50;;;5.10;;
4389;SDS011;2209;48.982;8.406;2023-06-10T14:44:30;5.47;;;5.07;;
4389;SDS011;2209;48.982;8.406;2023-06-10T14:46:52;4.80;;;4.50;;
4389;SDS011;2209;48.982;8.406;2023-06-10T14:49:14;5.40;;;5.00;;
4389;SDS011;2209;48.982;8.406;2023-06-10T14:51:36;6.30;;;5.80;;
4389;SDS011;2209;48.982;8.406;2023-06-10T14:54:01;6.13;;;4.77;;
4389;SDS011;2209;48.982;8.406;2023-06-10T14:56:27;5.10;;;4.70;;